createdAt,value
2019-03-15T00:00:28.522Z,37.34
2019-03-15T00:01:28.523Z,37.16
2019-03-15T00:02:28.489Z,36.94
2019-03-15T00:03:28.499Z,37.04
2019-03-15T00:04:28.466Z,37.64
2019-03-15T00:05:28.455Z,37.64
2019-03-15T00:06:28.444Z,37.64
2019-03-15T00:07:28.433Z,37.64
2019-03-15T00:08:28.442Z,37.44
2019-03-15T00:09:28.412Z,37.34
2019-03-15T00:10:28.400Z,37.34
2019-03-15T00:11:29.340Z,37.34
2019-03-15T00:12:28.377Z,37.54
2019-03-15T00:13:28.387Z,37.44
2019-03-15T00:14:28.355Z,37.34
2019-03-15T00:15:28.344Z,37.44
2019-03-15T00:16:28.333Z,37.64
2019-03-15T00:17:28.322Z,37.34
2019-03-15T00:18:28.332Z,37.24
2019-03-15T00:19:28.299Z,37.34
2019-03-15T00:20:28.288Z,36.94
2019-03-15T00:21:28.277Z,36.94
2019-03-15T00:22:28.345Z,37.34
2019-03-15T00:23:28.275Z,37.44
2019-03-15T00:24:28.244Z,37.34
2019-03-15T00:25:28.231Z,37.32
2019-03-15T00:26:28.220Z,37.14
2019-03-15T00:27:28.209Z,37.34
2019-03-15T00:28:28.228Z,37.44
2019-03-15T00:29:28.187Z,37.42
2019-03-15T00:30:28.175Z,37.14
2019-03-15T00:31:28.179Z,37.14
2019-03-15T00:32:28.152Z,37.14
2019-03-15T00:33:28.164Z,37.14
2019-03-15T00:34:28.132Z,37.02
2019-03-15T00:35:28.119Z,36.94
2019-03-15T00:36:28.114Z,36.84
2019-03-15T00:37:28.097Z,36.93
2019-03-15T00:38:28.108Z,37.02
2019-03-15T00:39:28.074Z,37.24
2019-03-15T00:40:28.064Z,36.82
2019-03-15T00:41:28.054Z,37.12
2019-03-15T00:42:28.062Z,37.02
2019-03-15T00:43:28.031Z,37.02
2019-03-15T00:44:28.041Z,36.93
2019-03-15T00:45:28.010Z,37.02
2019-03-15T00:46:27.997Z,37.02
2019-03-15T00:47:27.986Z,37.02
2019-03-15T00:48:27.975Z,36.93
2019-03-15T00:49:27.985Z,36.82
2019-03-15T00:50:27.952Z,36.93
2019-03-15T00:51:27.943Z,37.52
2019-03-15T00:52:27.934Z,36.93
2019-03-15T00:53:27.919Z,37.23
2019-03-15T00:54:28.062Z,37.12
2019-03-15T00:55:27.897Z,37.02
2019-03-15T00:56:27.886Z,37.34
2019-03-15T00:57:27.874Z,36.82
2019-03-15T00:58:27.869Z,37.23
2019-03-15T00:59:28.070Z,37.23
2019-03-15T01:00:27.848Z,37.23
2019-03-15T01:01:27.830Z,37.74
2019-03-15T01:02:27.820Z,37.32
2019-03-15T01:03:27.813Z,37.14
2019-03-15T01:04:27.817Z,37.12
2019-03-15T01:05:27.788Z,36.63
2019-03-15T01:06:27.775Z,37.62
2019-03-15T01:07:27.767Z,36.93
2019-03-15T01:08:27.752Z,37.24
2019-03-15T01:09:27.762Z,37.32
2019-03-15T01:10:27.755Z,37.23
2019-03-15T01:11:27.803Z,37.02
2019-03-15T01:12:27.707Z,36.94
2019-03-15T01:13:27.697Z,37.24
2019-03-15T01:14:27.707Z,37.23
2019-03-15T01:15:27.674Z,37.62
2019-03-15T01:16:27.664Z,37.72
2019-03-15T01:17:27.652Z,37.62
2019-03-15T01:18:27.641Z,37.72
2019-03-15T01:19:27.651Z,37.23
2019-03-15T01:20:27.623Z,37.52
2019-03-15T01:21:27.615Z,36.52
2019-03-15T01:22:27.597Z,37.72
2019-03-15T01:23:27.585Z,37.52
2019-03-15T01:24:27.595Z,37.02
2019-03-15T01:25:27.565Z,36.52
2019-03-15T01:26:27.551Z,37.24
2019-03-15T01:27:27.544Z,37.64
2019-03-15T01:28:27.530Z,36.93
2019-03-15T01:29:27.540Z,37.72
2019-03-15T01:30:27.509Z,37.23
2019-03-15T01:31:27.495Z,37.23
2019-03-15T01:32:27.485Z,36.52
2019-03-15T01:33:27.473Z,36.54
2019-03-15T01:34:27.484Z,36.84
2019-03-15T01:35:27.451Z,37.52
2019-03-15T01:36:27.444Z,37.62
2019-03-15T01:37:27.429Z,37.12
2019-03-15T01:38:27.439Z,37.62
2019-03-15T01:39:27.407Z,37.12
2019-03-15T01:40:27.417Z,37.24
2019-03-15T01:41:27.386Z,37.54
2019-03-15T01:42:27.374Z,36.93
2019-03-15T01:43:27.362Z,37.32
2019-03-15T01:44:27.351Z,36.63
2019-03-15T01:45:27.362Z,37.52
2019-03-15T01:46:27.329Z,36.72
2019-03-15T01:47:27.319Z,37.12
2019-03-15T01:48:27.307Z,36.93
2019-03-15T01:49:27.296Z,36.72
2019-03-15T01:50:27.307Z,36.43
2019-03-15T01:51:27.273Z,36.72
2019-03-15T01:52:27.263Z,36.72
2019-03-15T01:53:27.263Z,36.43
2019-03-15T01:54:27.241Z,36.43
2019-03-15T01:55:27.251Z,36.43
2019-03-15T01:56:27.222Z,36.13
2019-03-15T01:57:27.206Z,36.22
2019-03-15T01:58:27.195Z,36.52
2019-03-15T01:59:27.184Z,36.43
2019-03-15T02:00:27.193Z,36.13
2019-03-15T02:01:27.162Z,36.02
2019-03-15T02:02:27.150Z,35.93
2019-03-15T02:03:27.140Z,35.93
2019-03-15T02:04:27.129Z,35.93
2019-03-15T02:05:27.138Z,36.43
2019-03-15T02:06:27.106Z,35.93
2019-03-15T02:07:27.095Z,35.93
2019-03-15T02:08:27.083Z,35.93
2019-03-15T02:09:27.072Z,35.93
2019-03-15T02:10:27.083Z,35.93
2019-03-15T02:11:27.051Z,37.02
2019-03-15T02:12:27.039Z,35.93
2019-03-15T02:13:27.031Z,35.93
2019-03-15T02:14:27.634Z,36.13
2019-03-15T02:15:27.027Z,35.93
2019-03-15T02:16:26.995Z,36.93
2019-03-15T02:17:26.986Z,36.13
2019-03-15T02:18:26.993Z,35.93
2019-03-15T02:19:26.962Z,36.22
2019-03-15T02:20:27.333Z,37.02
2019-03-15T02:21:26.943Z,37.02
2019-03-15T02:22:26.928Z,35.93
2019-03-15T02:23:26.916Z,36.02
2019-03-15T02:24:26.906Z,36.13
2019-03-15T02:25:27.463Z,36.13
2019-03-15T02:26:26.883Z,35.83
2019-03-15T02:27:26.871Z,35.83
2019-03-15T02:28:26.860Z,35.93
2019-03-15T02:29:26.850Z,35.83
2019-03-15T02:30:26.860Z,36.13
2019-03-15T02:31:26.827Z,35.83
2019-03-15T02:32:26.829Z,35.93
2019-03-15T02:33:26.821Z,36.02
2019-03-15T02:34:27.444Z,35.83
2019-03-15T02:35:26.809Z,36.13
2019-03-15T02:36:26.802Z,36.43
2019-03-15T02:37:26.760Z,36.13
2019-03-15T02:38:27.152Z,35.83
2019-03-15T02:39:26.741Z,36.43
2019-03-15T02:40:26.765Z,35.83
2019-03-15T02:41:26.715Z,36.43
2019-03-15T02:42:26.705Z,36.32
2019-03-15T02:43:26.693Z,36.43
2019-03-15T02:44:26.686Z,35.93
2019-03-15T02:45:26.674Z,36.02
2019-03-15T02:46:26.683Z,36.43
2019-03-15T02:47:26.649Z,35.83
2019-03-15T02:48:26.637Z,36.13
2019-03-15T02:49:26.629Z,36.43
2019-03-15T02:50:26.630Z,35.83
2019-03-15T02:51:26.628Z,36.43
2019-03-15T02:52:26.594Z,36.13
2019-03-15T02:53:26.584Z,36.82
2019-03-15T02:54:27.354Z,35.93
2019-03-15T02:55:26.565Z,35.83
2019-03-15T02:56:26.571Z,36.13
2019-03-15T02:57:26.539Z,36.13
2019-03-15T02:58:28.002Z,36.22
2019-03-15T02:59:26.516Z,36.43
2019-03-15T03:00:26.505Z,36.43
2019-03-15T03:01:26.519Z,36.13
2019-03-15T03:02:27.647Z,36.13
2019-03-15T03:03:26.474Z,36.43
2019-03-15T03:04:26.459Z,36.13
2019-03-15T03:05:26.448Z,36.13
2019-03-15T03:06:27.390Z,35.93
2019-03-15T03:07:26.427Z,36.13
2019-03-15T03:08:26.415Z,36.13
2019-03-15T03:09:26.421Z,35.83
2019-03-15T03:10:26.394Z,35.83
2019-03-15T03:11:26.405Z,36.43
2019-03-15T03:12:26.371Z,36.22
2019-03-15T03:13:26.361Z,36.22
2019-03-15T03:14:26.348Z,36.43
2019-03-15T03:15:26.449Z,36.43
2019-03-15T03:16:26.347Z,36.43
2019-03-15T03:17:26.315Z,36.43
2019-03-15T03:18:26.306Z,36.32
2019-03-15T03:19:26.388Z,36.43
2019-03-15T03:20:26.283Z,35.93
2019-03-15T03:21:26.296Z,36.22
2019-03-15T03:22:26.259Z,36.22
2019-03-15T03:23:26.248Z,36.43
2019-03-15T03:24:26.239Z,36.32
2019-03-15T03:25:26.225Z,36.22
2019-03-15T03:26:26.237Z,36.22
2019-03-15T03:27:26.203Z,36.32
2019-03-15T03:28:26.196Z,36.22
2019-03-15T03:29:26.182Z,36.22
2019-03-15T03:30:26.173Z,36.02
2019-03-15T03:31:26.194Z,36.22
2019-03-15T03:32:26.153Z,36.43
2019-03-15T03:33:26.138Z,36.22
2019-03-15T03:34:26.157Z,36.22
2019-03-15T03:35:26.115Z,35.93
2019-03-15T03:36:26.174Z,36.22
2019-03-15T03:37:26.118Z,36.43
2019-03-15T03:38:26.087Z,36.22
2019-03-15T03:39:26.069Z,36.32
2019-03-15T03:40:26.060Z,36.22
2019-03-15T03:41:26.049Z,36.22
2019-03-15T03:42:26.059Z,36.22
2019-03-15T03:43:26.026Z,36.02
2019-03-15T03:44:26.015Z,36.22
2019-03-15T03:45:26.004Z,36.02
2019-03-15T03:46:25.994Z,36.13
2019-03-15T03:47:26.003Z,36.02
2019-03-15T03:48:25.970Z,36.13
2019-03-15T03:49:25.959Z,36.02
2019-03-15T03:50:25.947Z,36.43
2019-03-15T03:51:25.937Z,36.43
2019-03-15T03:52:25.947Z,36.13
2019-03-15T03:53:25.914Z,36.02
2019-03-15T03:54:25.903Z,36.13
2019-03-15T03:55:25.891Z,36.13
2019-03-15T03:56:25.881Z,36.13
2019-03-15T03:57:25.891Z,36.02
2019-03-15T03:58:25.921Z,36.13
2019-03-15T03:59:25.852Z,36.43
2019-03-15T04:00:25.835Z,36.02
2019-03-15T04:01:25.826Z,36.02
2019-03-15T04:02:25.835Z,36.13
2019-03-15T04:03:25.803Z,36.32
2019-03-15T04:04:25.791Z,36.02
2019-03-15T04:05:25.781Z,36.32
2019-03-15T04:06:25.770Z,36.43
2019-03-15T04:07:25.792Z,36.02
2019-03-15T04:08:25.746Z,36.43
2019-03-15T04:09:25.736Z,36.43
2019-03-15T04:10:25.725Z,36.13
2019-03-15T04:11:25.714Z,36.43
2019-03-15T04:12:25.725Z,36.43
2019-03-15T04:13:25.691Z,36.02
2019-03-15T04:14:25.682Z,36.13
2019-03-15T04:15:25.674Z,36.43
2019-03-15T04:16:25.659Z,36.43
2019-03-15T04:17:25.672Z,36.02
2019-03-15T04:18:25.636Z,36.13
2019-03-15T04:19:25.625Z,36.43
2019-03-15T04:20:25.613Z,36.22
2019-03-15T04:21:25.602Z,36.13
2019-03-15T04:22:25.612Z,36.13
2019-03-15T04:23:25.582Z,36.22
2019-03-15T04:24:25.569Z,36.22
2019-03-15T04:25:25.579Z,36.02
2019-03-15T04:26:25.549Z,36.13
2019-03-15T04:27:25.535Z,36.13
2019-03-15T04:28:25.546Z,36.02
2019-03-15T04:29:25.514Z,36.13
2019-03-15T04:30:25.502Z,36.02
2019-03-15T04:31:25.491Z,36.32
2019-03-15T04:32:25.480Z,36.32
2019-03-15T04:33:25.491Z,36.43
2019-03-15T04:34:28.213Z,36.43
2019-03-15T04:35:25.447Z,36.32
2019-03-15T04:36:25.435Z,36.32
2019-03-15T04:37:25.424Z,36.22
2019-03-15T04:38:25.435Z,36.02
2019-03-15T04:39:25.402Z,36.32
2019-03-15T04:40:25.392Z,36.43
2019-03-15T04:41:25.383Z,36.02
2019-03-15T04:42:25.370Z,36.43
2019-03-15T04:43:25.378Z,36.43
2019-03-15T04:44:25.347Z,36.02
2019-03-15T04:45:25.335Z,36.32
2019-03-15T04:46:25.327Z,36.02
2019-03-15T04:47:25.314Z,36.32
2019-03-15T04:48:25.323Z,36.02
2019-03-15T04:49:25.307Z,36.43
2019-03-15T04:50:25.284Z,36.43
2019-03-15T04:51:25.273Z,36.43
2019-03-15T04:52:25.257Z,36.43
2019-03-15T04:53:25.268Z,36.32
2019-03-15T04:54:25.235Z,36.43
2019-03-15T04:55:25.224Z,36.02
2019-03-15T04:56:25.214Z,36.32
2019-03-15T04:57:25.205Z,36.32
2019-03-15T04:58:25.212Z,36.43
2019-03-15T04:59:25.180Z,36.32
2019-03-15T05:00:25.168Z,36.43
2019-03-15T05:01:25.158Z,36.43
2019-03-15T05:02:25.148Z,36.43
2019-03-15T05:03:25.155Z,36.31
2019-03-15T05:04:25.127Z,36.22
2019-03-15T05:05:25.112Z,36.43
2019-03-15T05:06:25.104Z,36.43
2019-03-15T05:07:25.094Z,36.22
2019-03-15T05:08:25.101Z,36.32
2019-03-15T05:09:25.071Z,36.32
2019-03-15T05:10:25.058Z,36.43
2019-03-15T05:11:25.054Z,36.32
2019-03-15T05:12:25.034Z,36.32
2019-03-15T05:13:25.045Z,36.02
2019-03-15T05:14:25.013Z,36.02
2019-03-15T05:15:25.005Z,36.22
2019-03-15T05:16:24.991Z,36.22
2019-03-15T05:17:24.981Z,36.43
2019-03-15T05:18:24.993Z,36.43
2019-03-15T05:19:24.959Z,36.32
2019-03-15T05:20:24.946Z,36.32
2019-03-15T05:21:24.934Z,36.43
2019-03-15T05:22:24.924Z,36.22
2019-03-15T05:23:24.913Z,36.32
2019-03-15T05:24:24.923Z,36.22
2019-03-15T05:25:24.891Z,36.22
2019-03-15T05:26:24.882Z,36.43
2019-03-15T05:27:24.868Z,36.22
2019-03-15T05:28:24.859Z,36.32
2019-03-15T05:29:24.868Z,36.43
2019-03-15T05:30:24.834Z,36.22
2019-03-15T05:31:24.823Z,36.72
2019-03-15T05:32:24.812Z,36.43
2019-03-15T05:33:24.802Z,36.43
2019-03-15T05:34:24.811Z,36.43
2019-03-15T05:35:24.781Z,36.22
2019-03-15T05:36:24.771Z,36.32
2019-03-15T05:37:24.760Z,36.43
2019-03-15T05:38:24.746Z,36.52
2019-03-15T05:39:24.758Z,36.22
2019-03-15T05:40:24.723Z,36.43
2019-03-15T05:41:24.713Z,36.32
2019-03-15T05:42:24.700Z,36.32
2019-03-15T05:43:24.690Z,36.22
2019-03-15T05:44:24.701Z,36.22
2019-03-15T05:45:24.668Z,36.72
2019-03-15T05:46:24.655Z,36.82
2019-03-15T05:47:24.645Z,36.43
2019-03-15T05:48:24.638Z,36.31
2019-03-15T05:49:24.646Z,36.63
2019-03-15T05:50:24.617Z,36.21
2019-03-15T05:51:24.601Z,36.72
2019-03-15T05:52:24.589Z,36.31
2019-03-15T05:53:24.584Z,36.43
2019-03-15T05:54:24.588Z,36.32
2019-03-15T05:55:24.562Z,36.32
2019-03-15T05:56:24.544Z,36.43
2019-03-15T05:57:24.533Z,36.32
2019-03-15T05:58:24.522Z,36.93
2019-03-15T05:59:24.532Z,36.72
2019-03-15T06:00:24.501Z,36.32
2019-03-15T06:01:24.489Z,36.63
2019-03-15T06:02:24.479Z,36.72
2019-03-15T06:03:24.467Z,36.82
2019-03-15T06:04:24.477Z,36.43
2019-03-15T06:05:24.444Z,36.43
2019-03-15T06:06:24.433Z,36.43
2019-03-15T06:07:24.425Z,36.32
2019-03-15T06:08:27.461Z,36.32
2019-03-15T06:09:24.421Z,36.32
2019-03-15T06:10:24.389Z,36.43
2019-03-15T06:11:24.381Z,36.43
2019-03-15T06:12:24.366Z,36.52
2019-03-15T06:13:24.360Z,35.72
2019-03-15T06:14:24.373Z,36.02
2019-03-15T06:15:24.334Z,35.72
2019-03-15T06:16:24.324Z,36.02
2019-03-15T06:17:24.311Z,36.52
2019-03-15T06:18:24.322Z,36.32
2019-03-15T06:19:24.288Z,36.43
2019-03-15T06:20:24.299Z,36.43
2019-03-15T06:21:24.266Z,36.32
2019-03-15T06:22:24.255Z,36.32
2019-03-15T06:23:24.245Z,36.32
2019-03-15T06:24:24.233Z,36.52
2019-03-15T06:25:24.244Z,36.72
2019-03-15T06:26:24.210Z,36.72
2019-03-15T06:27:24.200Z,36.52
2019-03-15T06:28:24.190Z,36.43
2019-03-15T06:29:24.177Z,36.32
2019-03-15T06:30:24.187Z,36.52
2019-03-15T06:31:24.155Z,36.72
2019-03-15T06:32:24.144Z,36.22
2019-03-15T06:33:24.133Z,36.02
2019-03-15T06:34:24.122Z,36.32
2019-03-15T06:35:24.132Z,36.41
2019-03-15T06:36:24.099Z,37.02
2019-03-15T06:37:24.088Z,36.52
2019-03-15T06:38:24.079Z,36.63
2019-03-15T06:39:24.066Z,36.52
2019-03-15T06:40:24.076Z,36.93
2019-03-15T06:41:24.045Z,37.30
2019-03-15T06:42:24.033Z,37.01
2019-03-15T06:43:24.021Z,37.70
2019-03-15T06:44:24.011Z,37.51
2019-03-15T06:45:24.022Z,36.91
2019-03-15T06:46:23.988Z,38.20
2019-03-15T06:47:23.977Z,38.20
2019-03-15T06:48:23.966Z,37.60
2019-03-15T06:49:23.955Z,38.70
2019-03-15T06:50:23.965Z,38.90
2019-03-15T06:51:23.933Z,39.00
2019-03-15T06:52:23.922Z,38.60
2019-03-15T06:53:23.910Z,39.78
2019-03-15T06:54:23.989Z,39.80
2019-03-15T06:55:23.947Z,39.90
2019-03-15T06:56:23.880Z,39.58
2019-03-15T06:57:23.871Z,40.08
2019-03-15T06:58:23.854Z,39.98
2019-03-15T06:59:23.844Z,40.28
2019-03-15T07:00:23.854Z,40.98
2019-03-15T07:01:24.131Z,40.58
2019-03-15T07:02:23.810Z,40.28
2019-03-15T07:03:23.798Z,40.68
2019-03-15T07:04:23.790Z,40.78
2019-03-15T07:05:23.816Z,39.58
2019-03-15T07:06:23.766Z,39.58
2019-03-15T07:07:23.757Z,38.89
2019-03-15T07:08:23.744Z,38.98
2019-03-15T07:09:23.733Z,39.38
2019-03-15T07:10:23.759Z,39.38
2019-03-15T07:11:23.710Z,39.78
2019-03-15T07:12:23.699Z,39.40
2019-03-15T07:13:23.689Z,39.40
2019-03-15T07:14:23.684Z,39.10
2019-03-15T07:15:23.666Z,39.58
2019-03-15T07:16:23.675Z,38.10
2019-03-15T07:17:23.648Z,38.22
2019-03-15T07:18:23.633Z,38.92
2019-03-15T07:19:27.502Z,39.46
2019-03-15T07:20:24.609Z,39.87
2019-03-15T07:21:23.621Z,40.19
2019-03-15T07:22:23.587Z,40.22
2019-03-15T07:23:23.576Z,40.73
2019-03-15T07:24:25.518Z,41.33
2019-03-15T07:25:23.554Z,41.15
2019-03-15T07:26:23.567Z,42.25
2019-03-15T07:27:23.534Z,41.97
2019-03-15T07:28:23.521Z,42.99
2019-03-15T07:29:23.511Z,44.80
2019-03-15T07:30:23.498Z,44.88
2019-03-15T07:31:23.508Z,45.38
2019-03-15T07:32:23.583Z,43.98
2019-03-15T07:33:23.477Z,43.68
2019-03-15T07:34:23.455Z,42.46
2019-03-15T07:35:23.445Z,42.76
2019-03-15T07:36:23.453Z,42.66
2019-03-15T07:37:23.421Z,41.55
2019-03-15T07:38:23.409Z,41.85
2019-03-15T07:39:26.451Z,41.77
2019-03-15T07:40:23.388Z,43.27
2019-03-15T07:41:25.415Z,44.38
2019-03-15T07:42:23.364Z,43.38
2019-03-15T07:43:23.354Z,43.77
2019-03-15T07:44:23.343Z,43.18
2019-03-15T07:45:23.332Z,43.68
2019-03-15T07:46:23.342Z,42.88
2019-03-15T07:47:23.314Z,43.60
2019-03-15T07:48:26.584Z,44.10
2019-03-15T07:49:23.287Z,44.00
2019-03-15T07:50:23.276Z,43.62
2019-03-15T07:51:23.287Z,44.12
2019-03-15T07:52:23.254Z,44.84
2019-03-15T07:53:23.243Z,44.04
2019-03-15T07:54:23.231Z,45.14
2019-03-15T07:55:23.220Z,45.25
2019-03-15T07:56:23.229Z,45.72
2019-03-15T07:57:23.200Z,45.14
2019-03-15T07:58:23.187Z,44.72
2019-03-15T07:59:23.177Z,44.82
2019-03-15T08:00:23.164Z,44.82
2019-03-15T08:01:23.176Z,45.42
2019-03-15T08:02:23.143Z,45.45
2019-03-15T08:03:23.136Z,45.34
2019-03-15T08:04:23.150Z,45.45
2019-03-15T08:05:23.108Z,45.45
2019-03-15T08:06:34.039Z,45.57
2019-03-15T08:07:35.837Z,46.27
2019-03-15T08:08:24.108Z,45.47
2019-03-15T08:09:23.065Z,46.17
2019-03-15T08:10:23.064Z,46.19
2019-03-15T08:11:23.041Z,47.00
2019-03-15T08:12:23.052Z,47.00
2019-03-15T08:13:23.020Z,47.12
2019-03-15T08:14:23.009Z,46.81
2019-03-15T08:15:23.008Z,47.02
2019-03-15T08:16:22.990Z,47.92
2019-03-15T08:17:22.995Z,47.02
2019-03-15T08:18:22.963Z,47.42
2019-03-15T08:19:22.953Z,48.05
2019-03-15T08:20:23.047Z,47.74
2019-03-15T08:21:22.968Z,47.77
2019-03-15T08:22:22.940Z,47.97
2019-03-15T08:23:22.978Z,48.67
2019-03-15T08:24:22.895Z,49.40
2019-03-15T08:25:22.909Z,49.93
2019-03-15T08:26:22.872Z,50.02
2019-03-15T08:27:22.895Z,49.73
2019-03-15T08:28:22.859Z,49.73
2019-03-15T08:29:22.838Z,50.33
2019-03-15T08:30:22.828Z,50.23
2019-03-15T08:31:23.422Z,50.00
2019-03-15T08:32:22.827Z,51.01
2019-03-15T08:33:22.878Z,50.91
2019-03-15T08:34:22.875Z,49.77
2019-03-15T08:35:24.543Z,50.08
2019-03-15T08:36:22.759Z,49.98
2019-03-15T08:37:22.771Z,49.95
2019-03-15T08:38:22.737Z,50.35
2019-03-15T08:39:22.727Z,50.46
2019-03-15T08:40:25.709Z,50.33
2019-03-15T08:41:22.705Z,51.04
2019-03-15T08:42:22.722Z,50.93
2019-03-15T08:43:22.682Z,50.61
2019-03-15T08:44:22.669Z,51.42
2019-03-15T08:45:22.675Z,50.96
2019-03-15T08:46:22.648Z,50.96
2019-03-15T08:47:22.674Z,50.81
2019-03-15T08:48:22.658Z,49.69
2019-03-15T08:49:22.615Z,49.58
2019-03-15T08:50:24.556Z,49.26
2019-03-15T08:51:22.654Z,48.94
2019-03-15T08:52:22.600Z,49.11
2019-03-15T08:53:22.567Z,46.92
2019-03-15T08:54:22.556Z,47.74
2019-03-15T08:55:22.548Z,47.74
2019-03-15T08:56:22.535Z,48.66
2019-03-15T08:57:22.566Z,48.96
2019-03-15T08:58:22.687Z,49.57
2019-03-15T08:59:22.506Z,49.37
2019-03-15T09:00:22.494Z,49.44
2019-03-15T09:01:23.923Z,48.54
2019-03-15T09:02:22.480Z,49.04
2019-03-15T09:03:28.015Z,48.72
2019-03-15T09:04:23.443Z,48.22
2019-03-15T09:05:22.433Z,47.39
2019-03-15T09:06:22.427Z,47.49
2019-03-15T09:07:22.440Z,47.57
2019-03-15T09:08:22.424Z,47.57
2019-03-15T09:09:22.401Z,46.67
2019-03-15T09:10:24.042Z,46.77
2019-03-15T09:11:22.364Z,46.55
2019-03-15T09:12:22.359Z,46.25
2019-03-15T09:13:22.363Z,46.13
2019-03-15T09:14:22.351Z,45.93
2019-03-15T09:15:22.319Z,46.43
2019-03-15T09:16:22.308Z,45.83
2019-03-15T09:17:22.331Z,46.03
2019-03-15T09:18:22.308Z,46.03
2019-03-15T09:19:22.276Z,46.11
2019-03-15T09:20:22.263Z,45.01
2019-03-15T09:21:22.260Z,45.21
2019-03-15T09:22:22.239Z,45.31
2019-03-15T09:23:22.259Z,45.10
2019-03-15T09:24:22.245Z,45.21
2019-03-15T09:25:22.207Z,45.10
2019-03-15T09:26:22.193Z,45.01
2019-03-15T09:27:22.232Z,43.91
2019-03-15T09:28:22.207Z,44.51
2019-03-15T09:29:22.160Z,44.61
2019-03-15T09:30:24.398Z,44.71
2019-03-15T09:31:22.146Z,44.81
2019-03-15T09:32:22.131Z,44.51
2019-03-15T09:33:22.300Z,45.01
2019-03-15T09:34:22.108Z,44.61
2019-03-15T09:35:22.093Z,44.21
2019-03-15T09:36:22.081Z,43.91
2019-03-15T09:37:22.071Z,44.49
2019-03-15T09:38:22.083Z,45.21
2019-03-15T09:39:22.051Z,44.99
2019-03-15T09:40:25.322Z,44.59
2019-03-15T09:41:31.859Z,44.49
2019-03-15T09:42:23.015Z,45.18
2019-03-15T09:43:22.125Z,44.89
2019-03-15T09:44:22.214Z,44.69
2019-03-15T09:45:21.981Z,44.59
2019-03-15T09:46:22.123Z,44.09
2019-03-15T09:47:21.964Z,44.59
2019-03-15T09:48:21.974Z,43.89
2019-03-15T09:49:21.946Z,43.89
2019-03-15T09:50:33.852Z,43.87
2019-03-15T09:51:22.917Z,43.97
2019-03-15T09:52:21.932Z,43.69
2019-03-15T09:53:21.957Z,43.97
2019-03-15T09:54:21.907Z,43.27
2019-03-15T09:55:32.170Z,43.17
2019-03-15T09:56:22.885Z,43.07
2019-03-15T09:57:21.848Z,43.37
2019-03-15T09:58:21.918Z,43.59
2019-03-15T09:59:21.903Z,43.39
2019-03-15T10:00:21.877Z,43.37
2019-03-15T10:01:34.331Z,43.67
2019-03-15T10:02:30.167Z,43.07
2019-03-15T10:03:22.837Z,43.79
2019-03-15T10:04:21.797Z,42.97
2019-03-15T10:05:21.812Z,43.67
2019-03-15T10:06:21.750Z,43.17
2019-03-15T10:07:21.854Z,43.07
2019-03-15T10:08:23.601Z,43.37
2019-03-15T10:09:21.880Z,43.49
2019-03-15T10:10:21.704Z,43.27
2019-03-15T10:11:21.697Z,42.67
2019-03-15T10:12:21.683Z,43.17
2019-03-15T10:13:21.710Z,42.87
2019-03-15T10:14:21.698Z,42.97
2019-03-15T10:15:21.650Z,42.77
2019-03-15T10:16:21.636Z,42.67
2019-03-15T10:17:23.098Z,42.87
2019-03-15T10:18:21.619Z,42.87
2019-03-15T10:19:21.695Z,42.29
2019-03-15T10:20:21.592Z,42.69
2019-03-15T10:21:21.627Z,42.77
2019-03-15T10:22:21.570Z,42.37
2019-03-15T10:23:21.560Z,42.18
2019-03-15T10:24:21.569Z,42.97
2019-03-15T10:25:21.537Z,42.97
2019-03-15T10:26:21.574Z,43.17
2019-03-15T10:27:21.520Z,42.87
2019-03-15T10:28:21.516Z,42.87
2019-03-15T10:29:21.512Z,42.97
2019-03-15T10:30:21.480Z,43.17
2019-03-15T10:31:21.470Z,43.77
2019-03-15T10:32:21.463Z,42.97
2019-03-15T10:33:21.451Z,43.97
2019-03-15T10:34:26.531Z,43.87
2019-03-15T10:35:21.428Z,44.15
2019-03-15T10:36:22.779Z,44.24
2019-03-15T10:37:21.402Z,44.15
2019-03-15T10:38:21.392Z,44.24
2019-03-15T10:39:21.402Z,43.85
2019-03-15T10:40:21.370Z,44.05
2019-03-15T10:41:21.363Z,44.45
2019-03-15T10:42:21.350Z,44.54
2019-03-15T10:43:21.337Z,44.15
2019-03-15T10:44:21.363Z,44.54
2019-03-15T10:45:21.318Z,44.54
2019-03-15T10:46:21.336Z,45.54
2019-03-15T10:47:21.293Z,45.04
2019-03-15T10:48:25.528Z,45.04
2019-03-15T10:49:21.271Z,44.84
2019-03-15T10:50:21.279Z,44.74
2019-03-15T10:51:21.266Z,44.65
2019-03-15T10:52:21.236Z,44.84
2019-03-15T10:53:21.227Z,44.84
2019-03-15T10:54:21.215Z,44.53
2019-03-15T10:55:21.226Z,44.35
2019-03-15T10:56:21.198Z,44.24
2019-03-15T10:57:21.184Z,44.24
2019-03-15T10:58:21.202Z,44.54
2019-03-15T10:59:21.170Z,43.75
2019-03-15T11:00:21.170Z,43.15
2019-03-15T11:01:21.136Z,43.55
2019-03-15T11:02:21.125Z,43.25
2019-03-15T11:03:21.115Z,43.75
2019-03-15T11:04:21.127Z,43.65
2019-03-15T11:05:21.123Z,43.35
2019-03-15T11:06:21.089Z,43.75
2019-03-15T11:07:21.070Z,43.15
2019-03-15T11:08:24.090Z,43.65
2019-03-15T11:09:21.058Z,43.65
2019-03-15T11:10:21.064Z,43.35
2019-03-15T11:11:21.028Z,43.35
2019-03-15T11:12:21.020Z,43.45
2019-03-15T11:13:21.014Z,43.67
2019-03-15T11:14:20.991Z,43.47
2019-03-15T11:15:21.004Z,43.55
2019-03-15T11:16:20.975Z,43.55
2019-03-15T11:17:20.960Z,43.55
2019-03-15T11:18:20.953Z,43.55
2019-03-15T11:19:20.944Z,43.35
2019-03-15T11:20:20.947Z,43.55
2019-03-15T11:21:20.915Z,43.55
2019-03-15T11:22:20.906Z,43.45
2019-03-15T11:23:20.892Z,43.95
2019-03-15T11:24:20.883Z,42.95
2019-03-15T11:25:20.943Z,43.35
2019-03-15T11:26:20.859Z,43.05
2019-03-15T11:27:20.891Z,42.85
2019-03-15T11:28:20.840Z,42.85
2019-03-15T11:29:20.827Z,42.85
2019-03-15T11:30:20.844Z,43.15
2019-03-15T11:31:20.804Z,43.25
2019-03-15T11:32:20.813Z,42.75
2019-03-15T11:33:20.782Z,43.15
2019-03-15T11:34:20.783Z,43.15
2019-03-15T11:35:21.537Z,43.75
2019-03-15T11:36:20.748Z,43.15
2019-03-15T11:37:20.742Z,43.13
2019-03-15T11:38:20.735Z,42.95
2019-03-15T11:39:20.714Z,43.37
2019-03-15T11:40:20.737Z,43.59
2019-03-15T11:41:20.693Z,44.91
2019-03-15T11:42:20.683Z,45.25
2019-03-15T11:43:20.711Z,46.37
2019-03-15T11:44:20.659Z,47.11
2019-03-15T11:45:20.650Z,47.54
2019-03-15T11:46:20.683Z,48.16
2019-03-15T11:47:20.645Z,48.07
2019-03-15T11:48:20.616Z,48.24
2019-03-15T11:49:20.604Z,47.44
2019-03-15T11:50:20.600Z,47.74
2019-03-15T11:51:20.605Z,47.72
2019-03-15T11:52:20.575Z,47.31
2019-03-15T11:53:20.558Z,47.31
2019-03-15T11:54:20.547Z,46.59
2019-03-15T11:55:20.554Z,46.57
2019-03-15T11:56:26.840Z,46.17
2019-03-15T11:57:21.513Z,45.77
2019-03-15T11:58:20.504Z,45.65
2019-03-15T11:59:20.493Z,45.25
2019-03-15T12:00:20.480Z,45.05
2019-03-15T12:01:20.491Z,45.13
2019-03-15T12:02:20.460Z,44.83
2019-03-15T12:03:20.450Z,44.53
2019-03-15T12:04:20.437Z,45.23
2019-03-15T12:05:20.427Z,43.83
2019-03-15T12:06:20.435Z,44.31
2019-03-15T12:07:20.403Z,44.51
2019-03-15T12:08:20.393Z,44.01
2019-03-15T12:09:20.381Z,43.81
2019-03-15T12:10:20.369Z,43.51
2019-03-15T12:11:20.379Z,43.81
2019-03-15T12:12:21.702Z,43.91
2019-03-15T12:13:20.337Z,43.61
2019-03-15T12:14:20.326Z,43.39
2019-03-15T12:15:20.323Z,43.39
2019-03-15T12:16:20.325Z,43.89
2019-03-15T12:17:20.292Z,43.49
2019-03-15T12:18:20.282Z,43.39
2019-03-15T12:19:20.271Z,43.29
2019-03-15T12:20:20.260Z,43.39
2019-03-15T12:21:20.273Z,43.39
2019-03-15T12:22:20.236Z,43.29
2019-03-15T12:23:20.225Z,43.39
2019-03-15T12:24:20.215Z,43.39
2019-03-15T12:25:20.203Z,44.29
2019-03-15T12:26:20.213Z,44.29
2019-03-15T12:27:20.181Z,44.19
2019-03-15T12:28:20.169Z,44.17
2019-03-15T12:29:20.158Z,44.17
2019-03-15T12:30:20.148Z,44.29
2019-03-15T12:31:20.159Z,44.17
2019-03-15T12:32:20.125Z,43.87
2019-03-15T12:33:20.115Z,43.87
2019-03-15T12:34:20.104Z,43.87
2019-03-15T12:35:20.095Z,44.57
2019-03-15T12:36:20.103Z,44.67
2019-03-15T12:37:20.069Z,44.57
2019-03-15T12:38:20.058Z,44.99
2019-03-15T12:39:20.048Z,45.17
2019-03-15T12:40:20.058Z,45.18
2019-03-15T12:41:20.027Z,45.17
2019-03-15T12:42:20.035Z,44.57
2019-03-15T12:43:20.003Z,44.46
2019-03-15T12:44:19.992Z,44.27
2019-03-15T12:45:19.981Z,44.57
2019-03-15T12:46:19.970Z,44.57
2019-03-15T12:47:19.983Z,44.87
2019-03-15T12:48:19.962Z,44.57
2019-03-15T12:49:19.937Z,44.46
2019-03-15T12:50:19.926Z,44.46
2019-03-15T12:51:31.537Z,43.97
2019-03-15T12:52:20.925Z,44.37